sensor_id;sensor_type;location;lat;lon;timestamp;pressure;altitude;pressure_sealevel;temperature;humidity
33795;BME280;51430;52.242;21.118;2023-08-21T00:01:57;100666.58;;;24.19;82.58
33795;BME280;51430;52.242;21.118;2023-08-21T00:04:24;100663.23;;;24.16;82.64
33795;BME280;51430;52.242;21.118;2023-08-21T00:06:51;100660.14;;;24.11;82.61
33795;BME280;51430;52.242;21.118;2023-08-21T00:09:18;100658.23;;;24.08;82.63
33795;BME280;51430;52.242;21.118;2023-08-21T00:11:44;100658.58;;;24.05;82.50
33795;BME280;51430;52.242;21.118;2023-08-21T00:14:11;100652.70;;;24.05;82.91
33795;BME280;51430;52.242;21.118;2023-08-21T00:16:37;100652.64;;;24.03;82.98
33795;BME280;51430;52.242;21.118;2023-08-21T00:19:04;100655.21;;;24.01;83.29
33795;BME280;51430;52.242;21.118;2023-08-21T00:21:30;100653.95;;;23.98;83.54
33795;BME280;51430;52.242;21.118;2023-08-21T00:23:57;100656.23;;;23.96;83.80
33795;BME280;51430;52.242;21.118;2023-08-21T00:26:23;100656.06;;;23.91;83.93
33795;BME280;51430;52.242;21.118;2023-08-21T00:28:50;100654.89;;;23.88;83.84
33795;BME280;51430;52.242;21.118;2023-08-21T00:31:17;100655.59;;;23.84;84.01
33795;BME280;51430;52.242;21.118;2023-08-21T00:33:44;100656.92;;;23.82;83.87
33795;BME280;51430;52.242;21.118;2023-08-21T00:36:10;100657.52;;;23.80;83.92
33795;BME280;51430;52.242;21.118;2023-08-21T00:38:37;100659.73;;;23.78;84.09
33795;BME280;51430;52.242;21.118;2023-08-21T00:41:03;100663.02;;;23.72;84.47
33795;BME280;51430;52.242;21.118;2023-08-21T00:43:33;100668.80;;;23.67;84.98
33795;BME280;51430;52.242;21.118;2023-08-21T00:45:59;100669.00;;;23.64;85.20
33795;BME280;51430;52.242;21.118;2023-08-21T00:48:26;100668.92;;;23.62;84.63
33795;BME280;51430;52.242;21.118;2023-08-21T00:50:53;100668.02;;;23.58;84.53
33795;BME280;51430;52.242;21.118;2023-08-21T00:53:19;100670.84;;;23.55;84.57
33795;BME280;51430;52.242;21.118;2023-08-21T00:55:46;100675.02;;;23.56;84.82
33795;BME280;51430;52.242;21.118;2023-08-21T00:58:13;100674.52;;;23.55;85.14
33795;BME280;51430;52.242;21.118;2023-08-21T01:00:41;100671.76;;;23.54;85.95
33795;BME280;51430;52.242;21.118;2023-08-21T01:03:10;100673.04;;;23.51;87.16
33795;BME280;51430;52.242;21.118;2023-08-21T01:05:36;100672.02;;;23.46;87.72
33795;BME280;51430;52.242;21.118;2023-08-21T01:08:08;100669.89;;;23.43;87.99
33795;BME280;51430;52.242;21.118;2023-08-21T01:10:54;100676.18;;;23.41;87.96
33795;BME280;51430;52.242;21.118;2023-08-21T01:16:13;100674.37;;;23.29;88.36
33795;BME280;51430;52.242;21.118;2023-08-21T01:18:43;100671.40;;;23.24;88.67
33795;BME280;51430;52.242;21.118;2023-08-21T01:21:13;100665.58;;;23.19;88.90
33795;BME280;51430;52.242;21.118;2023-08-21T01:23:41;100667.84;;;23.19;88.65
33795;BME280;51430;52.242;21.118;2023-08-21T01:26:09;100670.41;;;23.19;88.78
33795;BME280;51430;52.242;21.118;2023-08-21T01:28:36;100674.30;;;23.16;88.86
33795;BME280;51430;52.242;21.118;2023-08-21T01:33:35;100677.30;;;23.11;88.90
33795;BME280;51430;52.242;21.118;2023-08-21T01:36:03;100679.77;;;23.07;88.85
33795;BME280;51430;52.242;21.118;2023-08-21T01:38:33;100682.00;;;23.07;88.72
33795;BME280;51430;52.242;21.118;2023-08-21T01:40:59;100685.60;;;23.03;88.94
33795;BME280;51430;52.242;21.118;2023-08-21T01:43:26;100687.39;;;22.98;89.25
33795;BME280;51430;52.242;21.118;2023-08-21T01:45:53;100684.33;;;22.94;89.50
33795;BME280;51430;52.242;21.118;2023-08-21T01:48:22;100684.30;;;22.92;89.91
33795;BME280;51430;52.242;21.118;2023-08-21T01:50:48;100684.41;;;22.91;89.65
33795;BME280;51430;52.242;21.118;2023-08-21T01:53:15;100682.41;;;22.91;89.64
33795;BME280;51430;52.242;21.118;2023-08-21T01:55:41;100684.18;;;22.91;89.64
33795;BME280;51430;52.242;21.118;2023-08-21T01:58:08;100680.55;;;22.87;89.87
33795;BME280;51430;52.242;21.118;2023-08-21T02:00:34;100680.15;;;22.85;90.16
33795;BME280;51430;52.242;21.118;2023-08-21T02:03:01;100682.08;;;22.83;90.12
33795;BME280;51430;52.242;21.118;2023-08-21T02:05:28;100677.77;;;22.81;90.36
33795;BME280;51430;52.242;21.118;2023-08-21T02:07:55;100674.55;;;22.79;90.23
33795;BME280;51430;52.242;21.118;2023-08-21T02:10:21;100673.70;;;22.79;90.35
33795;BME280;51430;52.242;21.118;2023-08-21T02:12:49;100674.25;;;22.78;90.42
33795;BME280;51430;52.242;21.118;2023-08-21T02:15:16;100668.39;;;22.75;90.55
33795;BME280;51430;52.242;21.118;2023-08-21T02:17:43;100664.66;;;22.73;90.79
33795;BME280;51430;52.242;21.118;2023-08-21T02:20:10;100660.08;;;22.70;90.85
33795;BME280;51430;52.242;21.118;2023-08-21T02:22:37;100661.43;;;22.68;90.93
33795;BME280;51430;52.242;21.118;2023-08-21T02:25:05;100659.64;;;22.65;90.93
33795;BME280;51430;52.242;21.118;2023-08-21T02:27:32;100664.54;;;22.63;90.99
33795;BME280;51430;52.242;21.118;2023-08-21T02:29:58;100659.90;;;22.60;91.16
33795;BME280;51430;52.242;21.118;2023-08-21T02:32:25;100656.89;;;22.58;91.36
33795;BME280;51430;52.242;21.118;2023-08-21T02:34:52;100659.98;;;22.56;91.05
33795;BME280;51430;52.242;21.118;2023-08-21T02:37:18;100661.44;;;22.53;91.18
33795;BME280;51430;52.242;21.118;2023-08-21T02:39:45;100658.45;;;22.50;91.28
33795;BME280;51430;52.242;21.118;2023-08-21T02:42:11;100660.80;;;22.47;91.28
33795;BME280;51430;52.242;21.118;2023-08-21T02:44:38;100663.66;;;22.44;91.44
33795;BME280;51430;52.242;21.118;2023-08-21T02:47:04;100668.12;;;22.39;91.42
33795;BME280;51430;52.242;21.118;2023-08-21T02:49:31;100667.83;;;22.36;91.64
33795;BME280;51430;52.242;21.118;2023-08-21T02:51:57;100667.78;;;22.30;91.92
33795;BME280;51430;52.242;21.118;2023-08-21T02:54:24;100666.87;;;22.26;92.25
33795;BME280;51430;52.242;21.118;2023-08-21T02:56:51;100672.27;;;22.25;92.46
33795;BME280;51430;52.242;21.118;2023-08-21T02:59:18;100670.20;;;22.25;92.35
33795;BME280;51430;52.242;21.118;2023-08-21T03:01:44;100674.61;;;22.24;92.24
33795;BME280;51430;52.242;21.118;2023-08-21T03:04:11;100674.27;;;22.19;92.49
33795;BME280;51430;52.242;21.118;2023-08-21T03:06:37;100673.06;;;22.16;92.66
33795;BME280;51430;52.242;21.118;2023-08-21T03:09:04;100672.94;;;22.11;92.93
33795;BME280;51430;52.242;21.118;2023-08-21T03:11:30;100671.27;;;22.09;93.04
33795;BME280;51430;52.242;21.118;2023-08-21T03:13:57;100666.43;;;22.06;93.12
33795;BME280;51430;52.242;21.118;2023-08-21T03:16:23;100658.86;;;22.04;93.42
33795;BME280;51430;52.242;21.118;2023-08-21T03:18:58;100654.96;;;22.01;93.36
33795;BME280;51430;52.242;21.118;2023-08-21T03:21:27;100650.80;;;21.99;93.38
33795;BME280;51430;52.242;21.118;2023-08-21T03:23:56;100653.14;;;22.00;93.37
33795;BME280;51430;52.242;21.118;2023-08-21T03:26:23;100648.92;;;21.98;93.45
33795;BME280;51430;52.242;21.118;2023-08-21T03:28:50;100652.27;;;21.97;93.65
33795;BME280;51430;52.242;21.118;2023-08-21T03:31:17;100651.08;;;21.94;93.60
33795;BME280;51430;52.242;21.118;2023-08-21T03:33:43;100653.70;;;21.94;93.85
33795;BME280;51430;52.242;21.118;2023-08-21T03:36:10;100657.79;;;21.96;93.43
33795;BME280;51430;52.242;21.118;2023-08-21T03:38:37;100657.32;;;21.95;93.25
33795;BME280;51430;52.242;21.118;2023-08-21T03:41:04;100660.71;;;21.95;93.03
33795;BME280;51430;52.242;21.118;2023-08-21T03:43:32;100661.15;;;21.91;93.54
33795;BME280;51430;52.242;21.118;2023-08-21T03:45:58;100660.60;;;21.90;93.32
33795;BME280;51430;52.242;21.118;2023-08-21T03:48:26;100663.17;;;21.89;93.41
33795;BME280;51430;52.242;21.118;2023-08-21T03:50:53;100668.45;;;21.89;93.73
33795;BME280;51430;52.242;21.118;2023-08-21T03:53:20;100663.77;;;21.89;93.97
33795;BME280;51430;52.242;21.118;2023-08-21T03:55:46;100664.24;;;21.88;94.14
33795;BME280;51430;52.242;21.118;2023-08-21T03:58:13;100664.73;;;21.92;93.95
33795;BME280;51430;52.242;21.118;2023-08-21T04:00:41;100665.31;;;21.95;93.97
33795;BME280;51430;52.242;21.118;2023-08-21T04:03:08;100667.77;;;21.98;93.88
33795;BME280;51430;52.242;21.118;2023-08-21T04:05:35;100668.82;;;22.00;93.74
33795;BME280;51430;52.242;21.118;2023-08-21T04:08:01;100671.27;;;22.03;93.79
33795;BME280;51430;52.242;21.118;2023-08-21T04:10:28;100670.83;;;22.07;93.90
33795;BME280;51430;52.242;21.118;2023-08-21T04:12:55;100664.95;;;22.11;94.26
33795;BME280;51430;52.242;21.118;2023-08-21T04:15:21;100664.11;;;22.15;93.97
33795;BME280;51430;52.242;21.118;2023-08-21T04:17:48;100663.50;;;22.19;94.04
33795;BME280;51430;52.242;21.118;2023-08-21T04:20:15;100671.03;;;22.22;93.89
33795;BME280;51430;52.242;21.118;2023-08-21T04:22:41;100669.10;;;22.28;93.84
33795;BME280;51430;52.242;21.118;2023-08-21T04:25:08;100668.16;;;22.39;93.75
33795;BME280;51430;52.242;21.118;2023-08-21T04:27:35;100673.36;;;22.50;93.42
33795;BME280;51430;52.242;21.118;2023-08-21T04:30:01;100670.76;;;22.63;93.02
33795;BME280;51430;52.242;21.118;2023-08-21T04:32:34;100664.30;;;22.73;93.21
33795;BME280;51430;52.242;21.118;2023-08-21T04:35:00;100672.75;;;22.80;93.17
33795;BME280;51430;52.242;21.118;2023-08-21T04:37:27;100687.60;;;22.83;92.95
33795;BME280;51430;52.242;21.118;2023-08-21T04:39:54;100687.62;;;22.87;92.92
33795;BME280;51430;52.242;21.118;2023-08-21T04:42:21;100685.05;;;22.92;93.23
33795;BME280;51430;52.242;21.118;2023-08-21T04:44:48;100681.46;;;22.95;93.30
33795;BME280;51430;52.242;21.118;2023-08-21T04:49:49;100678.80;;;23.02;93.55
33795;BME280;51430;52.242;21.118;2023-08-21T04:52:16;100685.54;;;23.13;93.49
33795;BME280;51430;52.242;21.118;2023-08-21T04:54:43;100678.33;;;23.27;93.14
33795;BME280;51430;52.242;21.118;2023-08-21T04:57:13;100680.64;;;23.43;92.15
33795;BME280;51430;52.242;21.118;2023-08-21T04:59:40;100679.59;;;23.61;89.96
33795;BME280;51430;52.242;21.118;2023-08-21T05:02:06;100684.48;;;23.79;88.62
33795;BME280;51430;52.242;21.118;2023-08-21T05:04:36;100685.98;;;23.94;88.42
33795;BME280;51430;52.242;21.118;2023-08-21T05:07:03;100687.24;;;24.05;88.79
33795;BME280;51430;52.242;21.118;2023-08-21T05:09:31;100684.48;;;24.15;89.15
33795;BME280;51430;52.242;21.118;2023-08-21T05:11:58;100685.95;;;24.26;88.87
33795;BME280;51430;52.242;21.118;2023-08-21T05:14:25;100696.76;;;24.38;88.87
33795;BME280;51430;52.242;21.118;2023-08-21T05:16:51;100692.79;;;24.47;88.68
33795;BME280;51430;52.242;21.118;2023-08-21T05:19:18;100695.88;;;24.56;88.42
33795;BME280;51430;52.242;21.118;2023-08-21T05:21:45;100697.66;;;24.63;88.08
33795;BME280;51430;52.242;21.118;2023-08-21T05:24:12;100699.75;;;24.71;87.28
33795;BME280;51430;52.242;21.118;2023-08-21T05:26:38;100701.92;;;24.78;86.10
33795;BME280;51430;52.242;21.118;2023-08-21T05:29:05;100702.39;;;24.88;85.97
33795;BME280;51430;52.242;21.118;2023-08-21T05:31:32;100699.00;;;24.97;86.18
33795;BME280;51430;52.242;21.118;2023-08-21T05:33:58;100697.55;;;25.08;85.76
33795;BME280;51430;52.242;21.118;2023-08-21T05:36:34;100698.41;;;25.20;85.33
33795;BME280;51430;52.242;21.118;2023-08-21T05:39:21;100701.16;;;25.25;84.85
33795;BME280;51430;52.242;21.118;2023-08-21T05:41:48;100706.24;;;25.34;82.95
33795;BME280;51430;52.242;21.118;2023-08-21T05:44:14;100708.71;;;25.38;81.33
33795;BME280;51430;52.242;21.118;2023-08-21T05:46:40;100711.61;;;25.44;80.38
33795;BME280;51430;52.242;21.118;2023-08-21T05:49:07;100708.43;;;25.51;80.72
33795;BME280;51430;52.242;21.118;2023-08-21T05:51:33;100715.78;;;25.62;81.53
33795;BME280;51430;52.242;21.118;2023-08-21T05:54:00;100717.85;;;25.77;80.46
33795;BME280;51430;52.242;21.118;2023-08-21T05:56:27;100720.54;;;25.98;80.26
33795;BME280;51430;52.242;21.118;2023-08-21T05:58:53;100726.48;;;26.08;78.82
33795;BME280;51430;52.242;21.118;2023-08-21T06:01:20;100727.73;;;26.14;79.18
33795;BME280;51430;52.242;21.118;2023-08-21T06:03:50;100727.96;;;26.21;78.50
33795;BME280;51430;52.242;21.118;2023-08-21T06:06:16;100736.98;;;26.28;78.33
33795;BME280;51430;52.242;21.118;2023-08-21T06:12:04;100733.66;;;26.20;79.03
33795;BME280;51430;52.242;21.118;2023-08-21T06:14:32;100736.50;;;26.29;78.56
33795;BME280;51430;52.242;21.118;2023-08-21T06:17:02;100741.33;;;26.36;77.49
33795;BME280;51430;52.242;21.118;2023-08-21T06:19:33;100745.35;;;26.35;76.47
33795;BME280;51430;52.242;21.118;2023-08-21T06:22:00;100746.60;;;26.51;75.75
33795;BME280;51430;52.242;21.118;2023-08-21T06:24:27;100752.09;;;26.76;74.72
33795;BME280;51430;52.242;21.118;2023-08-21T06:26:53;100752.78;;;27.03;74.90
33795;BME280;51430;52.242;21.118;2023-08-21T06:29:20;100753.10;;;27.18;74.56
33795;BME280;51430;52.242;21.118;2023-08-21T06:31:49;100748.27;;;27.17;73.40
33795;BME280;51430;52.242;21.118;2023-08-21T06:34:17;100750.73;;;27.14;73.20
33795;BME280;51430;52.242;21.118;2023-08-21T06:36:43;100749.55;;;27.18;74.15
33795;BME280;51430;52.242;21.118;2023-08-21T06:39:10;100756.81;;;27.26;73.30
33795;BME280;51430;52.242;21.118;2023-08-21T06:41:36;100765.52;;;27.33;72.53
33795;BME280;51430;52.242;21.118;2023-08-21T06:44:04;100773.05;;;27.38;71.64
33795;BME280;51430;52.242;21.118;2023-08-21T06:46:33;100777.88;;;27.48;71.51
33795;BME280;51430;52.242;21.118;2023-08-21T06:49:37;100776.70;;;27.73;71.56
33795;BME280;51430;52.242;21.118;2023-08-21T06:52:06;100776.14;;;27.88;70.66
33795;BME280;51430;52.242;21.118;2023-08-21T06:54:33;100776.99;;;27.91;69.95
33795;BME280;51430;52.242;21.118;2023-08-21T06:57:00;100781.63;;;27.90;69.92
33795;BME280;51430;52.242;21.118;2023-08-21T06:59:26;100782.60;;;28.00;70.81
33795;BME280;51430;52.242;21.118;2023-08-21T07:01:53;100784.33;;;28.16;69.35
33795;BME280;51430;52.242;21.118;2023-08-21T07:04:19;100790.33;;;28.42;69.03
33795;BME280;51430;52.242;21.118;2023-08-21T07:06:46;100801.64;;;28.55;67.50
33795;BME280;51430;52.242;21.118;2023-08-21T07:09:12;100809.40;;;28.52;67.65
33795;BME280;51430;52.242;21.118;2023-08-21T07:11:39;100806.91;;;28.47;67.30
33795;BME280;51430;52.242;21.118;2023-08-21T07:14:05;100807.48;;;28.37;67.74
33795;BME280;51430;52.242;21.118;2023-08-21T07:16:32;100811.98;;;28.22;68.36
33795;BME280;51430;52.242;21.118;2023-08-21T07:19:00;100815.05;;;28.17;68.73
33795;BME280;51430;52.242;21.118;2023-08-21T07:21:26;100822.69;;;28.07;68.64
33795;BME280;51430;52.242;21.118;2023-08-21T07:24:02;100831.73;;;27.78;69.32
33795;BME280;51430;52.242;21.118;2023-08-21T07:26:30;100833.56;;;27.48;70.08
33795;BME280;51430;52.242;21.118;2023-08-21T07:28:56;100828.48;;;27.25;70.84
33795;BME280;51430;52.242;21.118;2023-08-21T07:31:23;100834.73;;;26.95;72.07
33795;BME280;51430;52.242;21.118;2023-08-21T07:33:49;100838.27;;;26.78;72.77
33795;BME280;51430;52.242;21.118;2023-08-21T07:36:16;100835.52;;;26.71;73.23
33795;BME280;51430;52.242;21.118;2023-08-21T07:38:45;100844.58;;;26.70;73.67
33795;BME280;51430;52.242;21.118;2023-08-21T07:41:12;100847.71;;;26.60;74.13
33795;BME280;51430;52.242;21.118;2023-08-21T07:43:41;100846.80;;;26.34;74.83
33795;BME280;51430;52.242;21.118;2023-08-21T07:46:12;100837.02;;;26.25;75.67
33795;BME280;51430;52.242;21.118;2023-08-21T07:49:18;100834.20;;;26.36;75.68
33795;BME280;51430;52.242;21.118;2023-08-21T07:52:34;100836.23;;;26.03;76.92
33795;BME280;51430;52.242;21.118;2023-08-21T07:55:03;100839.33;;;25.83;77.95
33795;BME280;51430;52.242;21.118;2023-08-21T07:57:31;100839.42;;;25.86;78.36
33795;BME280;51430;52.242;21.118;2023-08-21T07:59:59;100840.88;;;25.70;78.64
33795;BME280;51430;52.242;21.118;2023-08-21T08:02:27;100836.20;;;25.67;79.01
33795;BME280;51430;52.242;21.118;2023-08-21T08:06:43;100834.85;;;25.60;79.04
33795;BME280;51430;52.242;21.118;2023-08-21T08:09:09;100830.16;;;25.59;79.56
33795;BME280;51430;52.242;21.118;2023-08-21T08:11:36;100831.05;;;25.83;78.59
33795;BME280;51430;52.242;21.118;2023-08-21T08:14:03;100833.01;;;26.13;77.92
33795;BME280;51430;52.242;21.118;2023-08-21T08:16:29;100833.91;;;26.49;76.33
33795;BME280;51430;52.242;21.118;2023-08-21T08:20:13;100832.55;;;26.71;75.61
33795;BME280;51430;52.242;21.118;2023-08-21T08:23:51;100827.81;;;27.24;74.08
33795;BME280;51430;52.242;21.118;2023-08-21T08:26:19;100825.58;;;27.50;72.56
33795;BME280;51430;52.242;21.118;2023-08-21T08:29:10;100827.90;;;28.34;70.39
33795;BME280;51430;52.242;21.118;2023-08-21T08:31:38;100835.41;;;28.87;67.76
33795;BME280;51430;52.242;21.118;2023-08-21T08:34:06;100838.69;;;28.87;67.15
33795;BME280;51430;52.242;21.118;2023-08-21T08:36:35;100840.56;;;29.01;66.39
33795;BME280;51430;52.242;21.118;2023-08-21T08:39:03;100833.45;;;28.95;66.52
33795;BME280;51430;52.242;21.118;2023-08-21T08:41:58;100831.92;;;29.44;65.00
33795;BME280;51430;52.242;21.118;2023-08-21T08:44:29;100827.00;;;29.47;64.30
33795;BME280;51430;52.242;21.118;2023-08-21T08:46:59;100820.18;;;29.26;65.19
33795;BME280;51430;52.242;21.118;2023-08-21T08:49:28;100822.30;;;29.21;65.80
33795;BME280;51430;52.242;21.118;2023-08-21T08:51:57;100818.87;;;29.24;65.93
33795;BME280;51430;52.242;21.118;2023-08-21T08:54:26;100814.48;;;29.24;65.35
33795;BME280;51430;52.242;21.118;2023-08-21T09:39:22;100795.51;;;36.06;41.57
33795;BME280;51430;52.242;21.118;2023-08-21T10:00:36;100794.43;;;38.95;35.74
33795;BME280;51430;52.242;21.118;2023-08-21T10:17:39;100790.98;;;37.49;32.62
33795;BME280;51430;52.242;21.118;2023-08-21T10:21:25;100791.55;;;37.51;32.55
33795;BME280;51430;52.242;21.118;2023-08-21T10:55:07;100808.89;;;39.86;27.79
33795;BME280;51430;52.242;21.118;2023-08-21T11:15:46;100824.52;;;41.42;22.20
33795;BME280;51430;52.242;21.118;2023-08-21T11:22:07;100830.19;;;41.80;23.46
33795;BME280;51430;52.242;21.118;2023-08-21T11:25:40;100829.83;;;41.72;22.45
33795;BME280;51430;52.242;21.118;2023-08-21T11:31:45;100827.28;;;40.95;23.01
33795;BME280;51430;52.242;21.118;2023-08-21T11:45:00;100823.96;;;41.98;22.72
33795;BME280;51430;52.242;21.118;2023-08-21T11:47:51;100822.55;;;41.97;22.45
33795;BME280;51430;52.242;21.118;2023-08-21T11:54:09;100819.66;;;42.07;23.26
33795;BME280;51430;52.242;21.118;2023-08-21T12:00:12;100829.44;;;43.00;21.02
33795;BME280;51430;52.242;21.118;2023-08-21T12:15:27;100816.55;;;40.45;23.04
33795;BME280;51430;52.242;21.118;2023-08-21T12:17:56;100815.58;;;40.59;22.98
33795;BME280;51430;52.242;21.118;2023-08-21T12:20:42;100811.17;;;41.42;22.86
33795;BME280;51430;52.242;21.118;2023-08-21T12:23:29;100812.39;;;42.42;22.88
33795;BME280;51430;52.242;21.118;2023-08-21T12:26:49;100815.00;;;42.75;21.99
33795;BME280;51430;52.242;21.118;2023-08-21T12:37:31;100796.30;;;40.22;23.93
33795;BME280;51430;52.242;21.118;2023-08-21T12:40:22;100800.59;;;40.83;24.38
33795;BME280;51430;52.242;21.118;2023-08-21T12:44:01;100801.27;;;41.95;23.56
33795;BME280;51430;52.242;21.118;2023-08-21T12:47:02;100801.14;;;42.33;23.25
33795;BME280;51430;52.242;21.118;2023-08-21T12:49:30;100802.59;;;43.20;22.55
33795;BME280;51430;52.242;21.118;2023-08-21T12:56:35;100796.95;;;42.10;22.67
33795;BME280;51430;52.242;21.118;2023-08-21T13:24:17;100777.05;;;43.65;20.96
33795;BME280;51430;52.242;21.118;2023-08-21T13:30:21;100784.37;;;43.02;20.91
33795;BME280;51430;52.242;21.118;2023-08-21T13:33:11;100780.94;;;42.63;21.44
33795;BME280;51430;52.242;21.118;2023-08-21T13:36:17;100778.67;;;41.78;22.05
33795;BME280;51430;52.242;21.118;2023-08-21T13:41:58;100774.95;;;42.86;22.08
33795;BME280;51430;52.242;21.118;2023-08-21T13:44:48;100781.40;;;43.81;21.56
33795;BME280;51430;52.242;21.118;2023-08-21T13:48:24;100783.48;;;43.77;20.78
33795;BME280;51430;52.242;21.118;2023-08-21T13:51:35;100773.48;;;43.96;21.06
33795;BME280;51430;52.242;21.118;2023-08-21T14:13:30;100787.58;;;44.60;20.65
33795;BME280;51430;52.242;21.118;2023-08-21T14:17:57;100781.57;;;44.47;20.73
33795;BME280;51430;52.242;21.118;2023-08-21T14:20:25;100773.77;;;44.60;21.21
33795;BME280;51430;52.242;21.118;2023-08-21T14:26:17;100776.52;;;43.87;20.59
33795;BME280;51430;52.242;21.118;2023-08-21T14:29:34;100775.80;;;43.05;21.83
33795;BME280;51430;52.242;21.118;2023-08-21T14:35:35;100780.82;;;43.49;21.24
33795;BME280;51430;52.242;21.118;2023-08-21T14:41:41;100767.90;;;43.68;21.06
33795;BME280;51430;52.242;21.118;2023-08-21T14:44:15;100768.73;;;43.94;21.35
33795;BME280;51430;52.242;21.118;2023-08-21T14:47:04;100770.57;;;44.36;20.93
33795;BME280;51430;52.242;21.118;2023-08-21T14:50:27;100768.73;;;44.10;21.48
33795;BME280;51430;52.242;21.118;2023-08-21T16:06:10;100727.69;;;34.94;30.75
33795;BME280;51430;52.242;21.118;2023-08-21T16:13:58;100732.35;;;36.43;29.30
33795;BME280;51430;52.242;21.118;2023-08-21T16:21:19;100725.55;;;36.12;29.60
33795;BME280;51430;52.242;21.118;2023-08-21T16:32:46;100721.00;;;34.09;32.54
33795;BME280;51430;52.242;21.118;2023-08-21T16:35:39;100723.60;;;33.56;33.96
33795;BME280;51430;52.242;21.118;2023-08-21T17:01:39;100703.04;;;31.41;38.40
33795;BME280;51430;52.242;21.118;2023-08-21T17:08:23;100699.17;;;30.81;39.16
33795;BME280;51430;52.242;21.118;2023-08-21T17:38:18;100695.50;;;29.07;43.54
33795;BME280;51430;52.242;21.118;2023-08-21T17:40:45;100692.60;;;29.02;44.16
33795;BME280;51430;52.242;21.118;2023-08-21T18:29:49;100719.31;;;26.98;51.35
33795;BME280;51430;52.242;21.118;2023-08-21T18:32:56;100719.02;;;26.87;51.16
33795;BME280;51430;52.242;21.118;2023-08-21T18:36:01;100716.02;;;26.87;51.67
33795;BME280;51430;52.242;21.118;2023-08-21T19:30:42;100721.86;;;25.52;56.38
33795;BME280;51430;52.242;21.118;2023-08-21T19:33:37;100723.16;;;25.48;57.00
33795;BME280;51430;52.242;21.118;2023-08-21T19:36:13;100722.79;;;25.46;57.87
33795;BME280;51430;52.242;21.118;2023-08-21T19:38:41;100720.17;;;25.39;57.72
33795;BME280;51430;52.242;21.118;2023-08-21T19:41:28;100721.86;;;25.34;58.14
33795;BME280;51430;52.242;21.118;2023-08-21T19:51:41;100719.23;;;25.11;58.35
33795;BME280;51430;52.242;21.118;2023-08-21T19:54:52;100723.97;;;25.09;58.99
33795;BME280;51430;52.242;21.118;2023-08-21T19:57:41;100726.11;;;25.12;59.27
33795;BME280;51430;52.242;21.118;2023-08-21T20:01:05;100722.98;;;25.04;58.96
33795;BME280;51430;52.242;21.118;2023-08-21T20:06:52;100722.27;;;24.95;58.79
33795;BME280;51430;52.242;21.118;2023-08-21T20:09:39;100719.60;;;24.96;59.39
33795;BME280;51430;52.242;21.118;2023-08-21T21:20:01;100709.29;;;23.52;63.98
33795;BME280;51430;52.242;21.118;2023-08-21T21:40:25;100718.59;;;23.12;65.83
33795;BME280;51430;52.242;21.118;2023-08-21T21:43:51;100718.94;;;23.08;65.96
